sensor_id;sensor_type;location;lat;lon;timestamp;P1;durP1;ratioP1;P2;durP2;ratioP2
9698;SDS011;10089;47.876;8.346;2023-07-29T00:00:40;4.55;;;2.08;;
9698;SDS011;10089;47.876;8.346;2023-07-29T00:03:06;2.47;;;2.28;;
9698;SDS011;10089;47.876;8.346;2023-07-29T00:05:32;3.75;;;2.20;;
9698;SDS011;10089;47.876;8.346;2023-07-29T00:07:57;6.65;;;1.98;;
9698;SDS011;10089;47.876;8.346;2023-07-29T00:10:23;3.42;;;1.77;;
9698;SDS011;10089;47.876;8.346;2023-07-29T00:12:48;2.70;;;1.92;;
9698;SDS011;10089;47.876;8.346;2023-07-29T00:15:14;3.33;;;2.20;;
9698;SDS011;10089;47.876;8.346;2023-07-29T00:17:40;2.15;;;1.90;;
9698;SDS011;10089;47.876;8.346;2023-07-29T00:20:06;2.03;;;1.80;;
9698;SDS011;10089;47.876;8.346;2023-07-29T00:22:32;3.70;;;2.08;;
9698;SDS011;10089;47.876;8.346;2023-07-29T00:24:57;2.25;;;2.00;;
9698;SDS011;10089;47.876;8.346;2023-07-29T00:27:24;4.20;;;2.08;;
9698;SDS011;10089;47.876;8.346;2023-07-29T00:29:50;2.38;;;2.10;;
9698;SDS011;10089;47.876;8.346;2023-07-29T00:32:15;3.20;;;1.63;;
9698;SDS011;10089;47.876;8.346;2023-07-29T00:34:41;2.65;;;1.90;;
9698;SDS011;10089;47.876;8.346;2023-07-29T00:37:07;1.90;;;1.50;;
9698;SDS011;10089;47.876;8.346;2023-07-29T00:39:32;2.35;;;1.65;;
9698;SDS011;10089;47.876;8.346;2023-07-29T00:41:58;2.25;;;1.80;;
9698;SDS011;10089;47.876;8.346;2023-07-29T00:44:24;2.58;;;1.92;;
9698;SDS011;10089;47.876;8.346;2023-07-29T00:46:50;2.22;;;1.83;;
9698;SDS011;10089;47.876;8.346;2023-07-29T00:49:18;4.43;;;1.85;;
9698;SDS011;10089;47.876;8.346;2023-07-29T00:51:46;2.90;;;1.98;;
9698;SDS011;10089;47.876;8.346;2023-07-29T00:54:13;3.60;;;2.00;;
9698;SDS011;10089;47.876;8.346;2023-07-29T00:56:39;3.85;;;1.90;;
9698;SDS011;10089;47.876;8.346;2023-07-29T00:59:05;2.20;;;1.90;;
9698;SDS011;10089;47.876;8.346;2023-07-29T01:01:31;2.05;;;1.60;;
9698;SDS011;10089;47.876;8.346;2023-07-29T01:03:57;2.03;;;1.70;;
9698;SDS011;10089;47.876;8.346;2023-07-29T01:06:26;4.32;;;2.33;;
9698;SDS011;10089;47.876;8.346;2023-07-29T01:15:20;2.30;;;1.60;;
9698;SDS011;10089;47.876;8.346;2023-07-29T01:17:36;6.55;;;1.58;;
9698;SDS011;10089;47.876;8.346;2023-07-29T01:20:15;1.40;;;1.30;;
9698;SDS011;10089;47.876;8.346;2023-07-29T01:22:42;4.80;;;1.60;;
9698;SDS011;10089;47.876;8.346;2023-07-29T01:25:08;4.65;;;1.58;;
9698;SDS011;10089;47.876;8.346;2023-07-29T01:27:33;1.90;;;1.67;;
9698;SDS011;10089;47.876;8.346;2023-07-29T01:29:59;1.45;;;1.35;;
9698;SDS011;10089;47.876;8.346;2023-07-29T01:33:14;1.83;;;1.38;;
9698;SDS011;10089;47.876;8.346;2023-07-29T01:35:29;1.60;;;1.50;;
9698;SDS011;10089;47.876;8.346;2023-07-29T01:38:00;4.43;;;1.50;;
9698;SDS011;10089;47.876;8.346;2023-07-29T01:40:31;5.35;;;1.52;;
9698;SDS011;10089;47.876;8.346;2023-07-29T01:42:58;9.05;;;1.40;;
9698;SDS011;10089;47.876;8.346;2023-07-29T01:45:24;3.15;;;1.30;;
9698;SDS011;10089;47.876;8.346;2023-07-29T01:47:51;1.45;;;1.30;;
9698;SDS011;10089;47.876;8.346;2023-07-29T01:50:17;5.45;;;1.60;;
9698;SDS011;10089;47.876;8.346;2023-07-29T01:52:42;2.17;;;1.10;;
9698;SDS011;10089;47.876;8.346;2023-07-29T01:55:08;3.38;;;1.20;;
9698;SDS011;10089;47.876;8.346;2023-07-29T01:57:34;11.73;;;1.42;;
9698;SDS011;10089;47.876;8.346;2023-07-29T01:59:59;4.72;;;1.30;;
9698;SDS011;10089;47.876;8.346;2023-07-29T02:02:25;2.17;;;1.40;;
9698;SDS011;10089;47.876;8.346;2023-07-29T02:04:51;2.30;;;1.67;;
9698;SDS011;10089;47.876;8.346;2023-07-29T02:07:20;4.53;;;2.15;;
9698;SDS011;10089;47.876;8.346;2023-07-29T02:09:46;2.47;;;2.28;;
9698;SDS011;10089;47.876;8.346;2023-07-29T02:12:11;2.47;;;1.92;;
9698;SDS011;10089;47.876;8.346;2023-07-29T02:14:37;3.65;;;2.42;;
9698;SDS011;10089;47.876;8.346;2023-07-29T02:17:02;3.00;;;2.40;;
9698;SDS011;10089;47.876;8.346;2023-07-29T02:19:28;2.95;;;2.30;;
9698;SDS011;10089;47.876;8.346;2023-07-29T02:21:54;3.70;;;2.45;;
9698;SDS011;10089;47.876;8.346;2023-07-29T02:24:19;2.40;;;2.20;;
9698;SDS011;10089;47.876;8.346;2023-07-29T02:26:45;3.33;;;2.50;;
9698;SDS011;10089;47.876;8.346;2023-07-29T02:29:10;2.75;;;2.33;;
9698;SDS011;10089;47.876;8.346;2023-07-29T02:31:36;4.38;;;2.20;;
9698;SDS011;10089;47.876;8.346;2023-07-29T02:34:02;4.07;;;2.33;;
9698;SDS011;10089;47.876;8.346;2023-07-29T02:36:29;3.58;;;1.98;;
9698;SDS011;10089;47.876;8.346;2023-07-29T02:38:54;4.43;;;2.10;;
9698;SDS011;10089;47.876;8.346;2023-07-29T02:41:20;3.63;;;2.22;;
9698;SDS011;10089;47.876;8.346;2023-07-29T02:43:49;4.10;;;2.58;;
9698;SDS011;10089;47.876;8.346;2023-07-29T02:46:16;3.30;;;2.15;;
9698;SDS011;10089;47.876;8.346;2023-07-29T02:48:42;2.20;;;1.85;;
9698;SDS011;10089;47.876;8.346;2023-07-29T02:51:09;3.17;;;2.10;;
9698;SDS011;10089;47.876;8.346;2023-07-29T02:53:34;2.35;;;2.13;;
9698;SDS011;10089;47.876;8.346;2023-07-29T02:56:01;3.15;;;2.42;;
9698;SDS011;10089;47.876;8.346;2023-07-29T02:58:31;3.25;;;2.30;;
9698;SDS011;10089;47.876;8.346;2023-07-29T03:01:03;3.97;;;2.17;;
9698;SDS011;10089;47.876;8.346;2023-07-29T03:03:30;2.92;;;2.13;;
9698;SDS011;10089;47.876;8.346;2023-07-29T03:06:09;3.42;;;2.20;;
9698;SDS011;10089;47.876;8.346;2023-07-29T03:08:36;2.65;;;2.25;;
9698;SDS011;10089;47.876;8.346;2023-07-29T03:11:06;6.30;;;2.45;;
9698;SDS011;10089;47.876;8.346;2023-07-29T03:13:33;3.20;;;2.20;;
9698;SDS011;10089;47.876;8.346;2023-07-29T03:16:05;5.53;;;2.58;;
9698;SDS011;10089;47.876;8.346;2023-07-29T03:18:32;4.88;;;2.40;;
9698;SDS011;10089;47.876;8.346;2023-07-29T03:20:57;2.63;;;2.40;;
9698;SDS011;10089;47.876;8.346;2023-07-29T03:23:23;3.22;;;2.38;;
9698;SDS011;10089;47.876;8.346;2023-07-29T03:25:49;3.13;;;2.58;;
9698;SDS011;10089;47.876;8.346;2023-07-29T03:28:18;3.00;;;2.42;;
9698;SDS011;10089;47.876;8.346;2023-07-29T03:30:43;2.90;;;2.20;;
9698;SDS011;10089;47.876;8.346;2023-07-29T03:33:09;3.80;;;2.35;;
9698;SDS011;10089;47.876;8.346;2023-07-29T03:35:34;2.97;;;2.20;;
9698;SDS011;10089;47.876;8.346;2023-07-29T03:38:00;2.55;;;2.22;;
9698;SDS011;10089;47.876;8.346;2023-07-29T03:40:25;3.15;;;2.80;;
9698;SDS011;10089;47.876;8.346;2023-07-29T03:42:51;5.25;;;2.70;;
9698;SDS011;10089;47.876;8.346;2023-07-29T03:45:17;4.85;;;2.53;;
9698;SDS011;10089;47.876;8.346;2023-07-29T03:47:42;2.70;;;2.00;;
9698;SDS011;10089;47.876;8.346;2023-07-29T03:50:08;4.90;;;2.10;;
9698;SDS011;10089;47.876;8.346;2023-07-29T03:52:34;3.00;;;2.30;;
9698;SDS011;10089;47.876;8.346;2023-07-29T03:54:59;2.88;;;2.22;;
9698;SDS011;10089;47.876;8.346;2023-07-29T03:57:25;3.92;;;2.47;;
9698;SDS011;10089;47.876;8.346;2023-07-29T03:59:50;4.55;;;1.95;;
9698;SDS011;10089;47.876;8.346;2023-07-29T04:02:16;3.03;;;2.33;;
9698;SDS011;10089;47.876;8.346;2023-07-29T04:04:41;3.40;;;2.50;;
9698;SDS011;10089;47.876;8.346;2023-07-29T04:07:09;3.50;;;2.40;;
9698;SDS011;10089;47.876;8.346;2023-07-29T04:09:34;3.85;;;2.42;;
9698;SDS011;10089;47.876;8.346;2023-07-29T04:12:00;4.22;;;2.75;;
9698;SDS011;10089;47.876;8.346;2023-07-29T04:14:26;4.40;;;2.60;;
9698;SDS011;10089;47.876;8.346;2023-07-29T04:16:53;3.85;;;2.40;;
9698;SDS011;10089;47.876;8.346;2023-07-29T04:19:18;4.32;;;2.50;;
9698;SDS011;10089;47.876;8.346;2023-07-29T04:21:44;3.88;;;2.58;;
9698;SDS011;10089;47.876;8.346;2023-07-29T04:24:11;3.67;;;2.78;;
9698;SDS011;10089;47.876;8.346;2023-07-29T04:26:36;2.63;;;2.40;;
9698;SDS011;10089;47.876;8.346;2023-07-29T04:29:04;3.10;;;2.65;;
9698;SDS011;10089;47.876;8.346;2023-07-29T04:31:29;3.75;;;2.60;;
9698;SDS011;10089;47.876;8.346;2023-07-29T04:33:55;6.53;;;2.90;;
9698;SDS011;10089;47.876;8.346;2023-07-29T04:36:20;3.25;;;2.92;;
9698;SDS011;10089;47.876;8.346;2023-07-29T04:38:46;3.97;;;2.85;;
9698;SDS011;10089;47.876;8.346;2023-07-29T04:41:11;4.40;;;2.80;;
9698;SDS011;10089;47.876;8.346;2023-07-29T04:43:37;4.20;;;3.13;;
9698;SDS011;10089;47.876;8.346;2023-07-29T04:46:05;5.25;;;3.30;;
9698;SDS011;10089;47.876;8.346;2023-07-29T04:48:33;3.55;;;3.25;;
9698;SDS011;10089;47.876;8.346;2023-07-29T04:50:59;4.82;;;3.40;;
9698;SDS011;10089;47.876;8.346;2023-07-29T04:53:24;5.50;;;3.53;;
9698;SDS011;10089;47.876;8.346;2023-07-29T04:55:50;4.75;;;3.70;;
9698;SDS011;10089;47.876;8.346;2023-07-29T04:58:15;4.88;;;3.80;;
9698;SDS011;10089;47.876;8.346;2023-07-29T05:00:41;4.38;;;3.90;;
9698;SDS011;10089;47.876;8.346;2023-07-29T05:03:06;5.95;;;3.60;;
9698;SDS011;10089;47.876;8.346;2023-07-29T05:05:32;4.90;;;3.60;;
9698;SDS011;10089;47.876;8.346;2023-07-29T05:07:59;4.70;;;3.47;;
9698;SDS011;10089;47.876;8.346;2023-07-29T05:10:24;4.60;;;3.63;;
9698;SDS011;10089;47.876;8.346;2023-07-29T05:12:50;6.38;;;3.72;;
9698;SDS011;10089;47.876;8.346;2023-07-29T05:15:15;5.28;;;3.45;;
9698;SDS011;10089;47.876;8.346;2023-07-29T05:17:41;4.35;;;3.65;;
9698;SDS011;10089;47.876;8.346;2023-07-29T05:20:07;4.93;;;3.67;;
9698;SDS011;10089;47.876;8.346;2023-07-29T05:22:34;8.27;;;4.32;;
9698;SDS011;10089;47.876;8.346;2023-07-29T05:25:01;6.13;;;4.05;;
9698;SDS011;10089;47.876;8.346;2023-07-29T05:27:27;5.07;;;4.18;;
9698;SDS011;10089;47.876;8.346;2023-07-29T05:29:52;5.47;;;4.15;;
9698;SDS011;10089;47.876;8.346;2023-07-29T05:32:20;4.53;;;3.55;;
9698;SDS011;10089;47.876;8.346;2023-07-29T05:34:45;7.10;;;3.60;;
9698;SDS011;10089;47.876;8.346;2023-07-29T05:37:11;4.70;;;3.60;;
9698;SDS011;10089;47.876;8.346;2023-07-29T05:39:37;5.38;;;3.78;;
9698;SDS011;10089;47.876;8.346;2023-07-29T05:42:02;4.10;;;3.30;;
9698;SDS011;10089;47.876;8.346;2023-07-29T05:44:28;5.68;;;3.80;;
9698;SDS011;10089;47.876;8.346;2023-07-29T05:46:55;5.05;;;3.92;;
9698;SDS011;10089;47.876;8.346;2023-07-29T05:49:22;4.95;;;3.75;;
9698;SDS011;10089;47.876;8.346;2023-07-29T05:51:47;4.85;;;4.20;;
9698;SDS011;10089;47.876;8.346;2023-07-29T05:54:13;12.52;;;5.78;;
9698;SDS011;10089;47.876;8.346;2023-07-29T05:56:38;12.05;;;7.82;;
9698;SDS011;10089;47.876;8.346;2023-07-29T05:59:04;18.33;;;12.23;;
9698;SDS011;10089;47.876;8.346;2023-07-29T06:01:30;8.55;;;7.03;;
9698;SDS011;10089;47.876;8.346;2023-07-29T06:03:56;5.82;;;4.10;;
9698;SDS011;10089;47.876;8.346;2023-07-29T06:06:21;5.82;;;4.15;;
9698;SDS011;10089;47.876;8.346;2023-07-29T06:08:48;4.43;;;3.85;;
9698;SDS011;10089;47.876;8.346;2023-07-29T06:11:15;4.68;;;3.40;;
9698;SDS011;10089;47.876;8.346;2023-07-29T06:13:50;4.38;;;3.80;;
9698;SDS011;10089;47.876;8.346;2023-07-29T06:16:15;5.00;;;4.15;;
9698;SDS011;10089;47.876;8.346;2023-07-29T06:18:41;6.25;;;3.53;;
9698;SDS011;10089;47.876;8.346;2023-07-29T06:21:06;4.68;;;3.83;;
9698;SDS011;10089;47.876;8.346;2023-07-29T06:23:33;4.63;;;3.78;;
9698;SDS011;10089;47.876;8.346;2023-07-29T06:25:59;6.70;;;5.28;;
9698;SDS011;10089;47.876;8.346;2023-07-29T06:28:25;6.07;;;4.72;;
9698;SDS011;10089;47.876;8.346;2023-07-29T06:30:51;4.47;;;3.58;;
9698;SDS011;10089;47.876;8.346;2023-07-29T06:33:17;15.25;;;10.05;;
9698;SDS011;10089;47.876;8.346;2023-07-29T06:35:43;7.32;;;5.38;;
9698;SDS011;10089;47.876;8.346;2023-07-29T06:38:08;5.05;;;3.60;;
9698;SDS011;10089;47.876;8.346;2023-07-29T06:40:34;2.88;;;2.10;;
9698;SDS011;10089;47.876;8.346;2023-07-29T06:43:00;2.65;;;1.90;;
9698;SDS011;10089;47.876;8.346;2023-07-29T06:45:26;1.90;;;1.70;;
9698;SDS011;10089;47.876;8.346;2023-07-29T06:47:51;3.88;;;1.90;;
9698;SDS011;10089;47.876;8.346;2023-07-29T06:50:17;2.85;;;1.70;;
9698;SDS011;10089;47.876;8.346;2023-07-29T06:52:43;2.95;;;1.90;;
9698;SDS011;10089;47.876;8.346;2023-07-29T06:55:09;2.08;;;1.60;;
9698;SDS011;10089;47.876;8.346;2023-07-29T06:57:34;3.92;;;1.90;;
9698;SDS011;10089;47.876;8.346;2023-07-29T07:00:00;2.13;;;1.70;;
9698;SDS011;10089;47.876;8.346;2023-07-29T07:02:26;2.58;;;1.90;;
9698;SDS011;10089;47.876;8.346;2023-07-29T07:04:52;3.10;;;1.95;;
9698;SDS011;10089;47.876;8.346;2023-07-29T07:07:17;2.08;;;1.73;;
9698;SDS011;10089;47.876;8.346;2023-07-29T07:09:43;2.85;;;2.03;;
9698;SDS011;10089;47.876;8.346;2023-07-29T07:12:08;4.18;;;2.05;;
9698;SDS011;10089;47.876;8.346;2023-07-29T07:14:34;2.90;;;1.70;;
9698;SDS011;10089;47.876;8.346;2023-07-29T07:17:00;2.05;;;1.80;;
9698;SDS011;10089;47.876;8.346;2023-07-29T07:19:25;2.40;;;1.92;;
9698;SDS011;10089;47.876;8.346;2023-07-29T07:21:51;4.10;;;2.00;;
9698;SDS011;10089;47.876;8.346;2023-07-29T07:24:17;2.33;;;1.90;;
9698;SDS011;10089;47.876;8.346;2023-07-29T07:26:42;3.10;;;2.08;;
9698;SDS011;10089;47.876;8.346;2023-07-29T07:29:08;2.78;;;2.00;;
9698;SDS011;10089;47.876;8.346;2023-07-29T07:31:34;4.70;;;2.03;;
9698;SDS011;10089;47.876;8.346;2023-07-29T07:34:00;2.50;;;2.28;;
9698;SDS011;10089;47.876;8.346;2023-07-29T07:36:27;3.92;;;2.22;;
9698;SDS011;10089;47.876;8.346;2023-07-29T07:38:52;3.95;;;2.10;;
9698;SDS011;10089;47.876;8.346;2023-07-29T07:41:18;2.53;;;1.90;;
9698;SDS011;10089;47.876;8.346;2023-07-29T07:43:44;2.58;;;2.35;;
9698;SDS011;10089;47.876;8.346;2023-07-29T07:46:09;2.80;;;2.28;;
9698;SDS011;10089;47.876;8.346;2023-07-29T07:48:35;2.75;;;2.10;;
9698;SDS011;10089;47.876;8.346;2023-07-29T07:51:04;2.83;;;2.20;;
9698;SDS011;10089;47.876;8.346;2023-07-29T07:53:35;3.08;;;2.20;;
9698;SDS011;10089;47.876;8.346;2023-07-29T07:56:01;2.65;;;2.08;;
9698;SDS011;10089;47.876;8.346;2023-07-29T07:58:26;2.65;;;2.22;;
9698;SDS011;10089;47.876;8.346;2023-07-29T08:00:52;2.47;;;2.03;;
9698;SDS011;10089;47.876;8.346;2023-07-29T08:03:25;4.22;;;2.08;;
9698;SDS011;10089;47.876;8.346;2023-07-29T08:05:51;3.15;;;2.22;;
9698;SDS011;10089;47.876;8.346;2023-07-29T08:08:16;2.45;;;2.10;;
9698;SDS011;10089;47.876;8.346;2023-07-29T08:10:42;2.25;;;2.05;;
9698;SDS011;10089;47.876;8.346;2023-07-29T08:13:07;2.65;;;2.22;;
9698;SDS011;10089;47.876;8.346;2023-07-29T08:15:33;2.67;;;1.95;;
9698;SDS011;10089;47.876;8.346;2023-07-29T08:17:59;2.90;;;2.22;;
9698;SDS011;10089;47.876;8.346;2023-07-29T08:20:24;2.67;;;2.38;;
9698;SDS011;10089;47.876;8.346;2023-07-29T08:22:50;4.18;;;2.13;;
9698;SDS011;10089;47.876;8.346;2023-07-29T08:25:15;2.60;;;2.17;;
9698;SDS011;10089;47.876;8.346;2023-07-29T08:27:41;2.67;;;2.40;;
9698;SDS011;10089;47.876;8.346;2023-07-29T08:30:07;3.10;;;2.05;;
9698;SDS011;10089;47.876;8.346;2023-07-29T08:32:33;4.32;;;2.22;;
9698;SDS011;10089;47.876;8.346;2023-07-29T08:34:59;2.47;;;2.28;;
9698;SDS011;10089;47.876;8.346;2023-07-29T08:37:24;2.70;;;2.08;;
9698;SDS011;10089;47.876;8.346;2023-07-29T08:39:52;2.65;;;1.90;;
9698;SDS011;10089;47.876;8.346;2023-07-29T08:42:19;2.70;;;2.20;;
9698;SDS011;10089;47.876;8.346;2023-07-29T08:44:45;2.58;;;2.03;;
9698;SDS011;10089;47.876;8.346;2023-07-29T08:47:13;2.15;;;1.95;;
9698;SDS011;10089;47.876;8.346;2023-07-29T08:49:39;3.45;;;2.08;;
9698;SDS011;10089;47.876;8.346;2023-07-29T08:52:06;2.30;;;1.83;;
9698;SDS011;10089;47.876;8.346;2023-07-29T08:54:32;4.68;;;1.90;;
9698;SDS011;10089;47.876;8.346;2023-07-29T08:56:58;2.47;;;1.95;;
9698;SDS011;10089;47.876;8.346;2023-07-29T08:59:24;2.30;;;2.10;;
9698;SDS011;10089;47.876;8.346;2023-07-29T09:01:51;2.63;;;1.98;;
9698;SDS011;10089;47.876;8.346;2023-07-29T09:04:20;2.80;;;2.00;;
9698;SDS011;10089;47.876;8.346;2023-07-29T09:06:47;2.22;;;2.03;;
9698;SDS011;10089;47.876;8.346;2023-07-29T09:09:15;3.88;;;2.30;;
9698;SDS011;10089;47.876;8.346;2023-07-29T09:11:41;2.80;;;1.90;;
9698;SDS011;10089;47.876;8.346;2023-07-29T09:14:06;4.68;;;2.28;;
9698;SDS011;10089;47.876;8.346;2023-07-29T09:16:32;4.82;;;2.20;;
9698;SDS011;10089;47.876;8.346;2023-07-29T09:19:01;2.55;;;2.00;;
9698;SDS011;10089;47.876;8.346;2023-07-29T09:21:28;2.42;;;2.15;;
9698;SDS011;10089;47.876;8.346;2023-07-29T09:23:54;2.38;;;1.80;;
9698;SDS011;10089;47.876;8.346;2023-07-29T09:26:27;2.55;;;2.03;;
9698;SDS011;10089;47.876;8.346;2023-07-29T09:28:54;3.08;;;2.28;;
9698;SDS011;10089;47.876;8.346;2023-07-29T09:31:21;3.05;;;2.03;;
9698;SDS011;10089;47.876;8.346;2023-07-29T09:33:48;2.22;;;2.03;;
9698;SDS011;10089;47.876;8.346;2023-07-29T09:36:14;2.65;;;1.95;;
9698;SDS011;10089;47.876;8.346;2023-07-29T09:38:40;2.25;;;2.03;;
9698;SDS011;10089;47.876;8.346;2023-07-29T09:41:05;2.42;;;2.17;;
9698;SDS011;10089;47.876;8.346;2023-07-29T09:43:32;3.08;;;1.98;;
9698;SDS011;10089;47.876;8.346;2023-07-29T09:45:59;3.95;;;2.35;;
9698;SDS011;10089;47.876;8.346;2023-07-29T09:48:26;2.50;;;2.10;;
9698;SDS011;10089;47.876;8.346;2023-07-29T09:50:53;2.20;;;2.00;;
9698;SDS011;10089;47.876;8.346;2023-07-29T09:53:20;5.03;;;2.50;;
9698;SDS011;10089;47.876;8.346;2023-07-29T09:55:46;3.08;;;1.88;;
9698;SDS011;10089;47.876;8.346;2023-07-29T09:58:19;3.97;;;2.28;;
9698;SDS011;10089;47.876;8.346;2023-07-29T10:00:52;3.47;;;1.83;;
9698;SDS011;10089;47.876;8.346;2023-07-29T10:03:18;3.10;;;2.28;;
9698;SDS011;10089;47.876;8.346;2023-07-29T10:05:45;2.50;;;2.30;;
9698;SDS011;10089;47.876;8.346;2023-07-29T10:08:11;2.03;;;1.83;;
9698;SDS011;10089;47.876;8.346;2023-07-29T10:10:38;2.60;;;2.22;;
9698;SDS011;10089;47.876;8.346;2023-07-29T10:13:06;3.08;;;2.22;;
9698;SDS011;10089;47.876;8.346;2023-07-29T10:15:32;2.40;;;2.20;;
9698;SDS011;10089;47.876;8.346;2023-07-29T10:17:59;3.17;;;2.40;;
9698;SDS011;10089;47.876;8.346;2023-07-29T10:20:26;2.15;;;1.95;;
9698;SDS011;10089;47.876;8.346;2023-07-29T10:22:52;2.00;;;1.80;;
9698;SDS011;10089;47.876;8.346;2023-07-29T10:25:22;2.20;;;2.00;;
9698;SDS011;10089;47.876;8.346;2023-07-29T10:27:52;5.53;;;2.10;;
9698;SDS011;10089;47.876;8.346;2023-07-29T10:30:21;3.97;;;2.20;;
9698;SDS011;10089;47.876;8.346;2023-07-29T10:32:48;1.85;;;1.67;;
9698;SDS011;10089;47.876;8.346;2023-07-29T10:35:15;1.92;;;1.80;;
9698;SDS011;10089;47.876;8.346;2023-07-29T10:37:41;2.05;;;1.85;;
9698;SDS011;10089;47.876;8.346;2023-07-29T10:40:08;3.45;;;2.20;;
9698;SDS011;10089;47.876;8.346;2023-07-29T10:42:36;2.22;;;1.70;;
9698;SDS011;10089;47.876;8.346;2023-07-29T10:45:21;3.00;;;2.17;;
9698;SDS011;10089;47.876;8.346;2023-07-29T10:47:47;2.20;;;2.00;;
9698;SDS011;10089;47.876;8.346;2023-07-29T10:50:17;2.00;;;1.75;;
9698;SDS011;10089;47.876;8.346;2023-07-29T10:52:46;3.83;;;2.05;;
9698;SDS011;10089;47.876;8.346;2023-07-29T10:55:25;2.03;;;1.83;;
9698;SDS011;10089;47.876;8.346;2023-07-29T10:58:07;2.45;;;1.60;;
9698;SDS011;10089;47.876;8.346;2023-07-29T11:00:42;2.20;;;1.90;;
9698;SDS011;10089;47.876;8.346;2023-07-29T11:03:09;2.92;;;1.85;;
9698;SDS011;10089;47.876;8.346;2023-07-29T11:05:52;1.92;;;1.60;;
9698;SDS011;10089;47.876;8.346;2023-07-29T11:13:30;2.63;;;1.70;;
9698;SDS011;10089;47.876;8.346;2023-07-29T11:15:57;1.92;;;1.73;;
9698;SDS011;10089;47.876;8.346;2023-07-29T11:18:27;2.47;;;1.80;;
9698;SDS011;10089;47.876;8.346;2023-07-29T11:20:57;3.20;;;1.55;;
9698;SDS011;10089;47.876;8.346;2023-07-29T11:23:27;2.13;;;1.80;;
9698;SDS011;10089;47.876;8.346;2023-07-29T11:26:00;1.77;;;1.52;;
9698;SDS011;10089;47.876;8.346;2023-07-29T11:28:27;2.47;;;1.75;;
9698;SDS011;10089;47.876;8.346;2023-07-29T11:30:53;1.80;;;1.70;;
9698;SDS011;10089;47.876;8.346;2023-07-29T11:33:23;1.70;;;1.60;;
9698;SDS011;10089;47.876;8.346;2023-07-29T11:35:50;2.08;;;1.88;;
9698;SDS011;10089;47.876;8.346;2023-07-29T11:38:17;2.63;;;1.80;;
9698;SDS011;10089;47.876;8.346;2023-07-29T11:40:52;1.75;;;1.65;;
9698;SDS011;10089;47.876;8.346;2023-07-29T11:43:23;1.80;;;1.55;;
9698;SDS011;10089;47.876;8.346;2023-07-29T11:45:48;1.60;;;1.50;;
9698;SDS011;10089;47.876;8.346;2023-07-29T11:48:14;2.03;;;1.65;;
9698;SDS011;10089;47.876;8.346;2023-07-29T11:50:40;5.13;;;1.90;;
9698;SDS011;10089;47.876;8.346;2023-07-29T11:53:06;1.60;;;1.50;;
9698;SDS011;10089;47.876;8.346;2023-07-29T11:55:31;1.50;;;1.40;;
9698;SDS011;10089;47.876;8.346;2023-07-29T11:57:58;2.17;;;1.92;;
9698;SDS011;10089;47.876;8.346;2023-07-29T12:00:27;2.05;;;1.58;;
9698;SDS011;10089;47.876;8.346;2023-07-29T12:02:53;2.78;;;1.70;;
9698;SDS011;10089;47.876;8.346;2023-07-29T12:05:20;2.30;;;1.70;;
9698;SDS011;10089;47.876;8.346;2023-07-29T12:07:47;2.25;;;1.70;;
9698;SDS011;10089;47.876;8.346;2023-07-29T12:10:13;1.95;;;1.67;;
9698;SDS011;10089;47.876;8.346;2023-07-29T12:12:45;2.13;;;1.73;;
9698;SDS011;10089;47.876;8.346;2023-07-29T12:15:12;1.73;;;1.60;;
9698;SDS011;10089;47.876;8.346;2023-07-29T12:17:39;2.08;;;1.88;;
9698;SDS011;10089;47.876;8.346;2023-07-29T12:20:07;2.50;;;1.60;;
9698;SDS011;10089;47.876;8.346;2023-07-29T12:22:34;2.40;;;2.15;;
9698;SDS011;10089;47.876;8.346;2023-07-29T12:25:00;2.28;;;1.90;;
9698;SDS011;10089;47.876;8.346;2023-07-29T12:27:29;2.35;;;1.80;;
9698;SDS011;10089;47.876;8.346;2023-07-29T12:29:56;2.42;;;2.10;;
9698;SDS011;10089;47.876;8.346;2023-07-29T12:32:24;1.73;;;1.60;;
9698;SDS011;10089;47.876;8.346;2023-07-29T12:34:52;2.42;;;1.80;;
9698;SDS011;10089;47.876;8.346;2023-07-29T12:37:18;2.40;;;1.80;;
9698;SDS011;10089;47.876;8.346;2023-07-29T12:39:44;2.45;;;1.95;;
9698;SDS011;10089;47.876;8.346;2023-07-29T12:42:10;2.58;;;1.88;;
9698;SDS011;10089;47.876;8.346;2023-07-29T12:44:36;2.80;;;2.28;;
9698;SDS011;10089;47.876;8.346;2023-07-29T12:47:03;3.15;;;2.05;;
9698;SDS011;10089;47.876;8.346;2023-07-29T12:49:30;3.95;;;2.53;;
9698;SDS011;10089;47.876;8.346;2023-07-29T12:51:59;3.53;;;2.63;;
9698;SDS011;10089;47.876;8.346;2023-07-29T12:54:24;3.05;;;2.42;;
9698;SDS011;10089;47.876;8.346;2023-07-29T12:56:50;2.35;;;2.00;;
9698;SDS011;10089;47.876;8.346;2023-07-29T12:59:16;2.47;;;2.25;;
9698;SDS011;10089;47.876;8.346;2023-07-29T13:01:42;2.30;;;2.10;;
9698;SDS011;10089;47.876;8.346;2023-07-29T13:04:09;2.00;;;1.80;;
9698;SDS011;10089;47.876;8.346;2023-07-29T13:06:35;2.85;;;1.98;;
9698;SDS011;10089;47.876;8.346;2023-07-29T13:09:00;2.47;;;2.00;;
9698;SDS011;10089;47.876;8.346;2023-07-29T13:11:26;2.70;;;2.40;;
9698;SDS011;10089;47.876;8.346;2023-07-29T13:13:51;3.70;;;2.10;;
9698;SDS011;10089;47.876;8.346;2023-07-29T13:16:17;3.03;;;2.33;;
9698;SDS011;10089;47.876;8.346;2023-07-29T13:18:43;2.58;;;2.38;;
9698;SDS011;10089;47.876;8.346;2023-07-29T13:21:09;3.35;;;2.25;;
9698;SDS011;10089;47.876;8.346;2023-07-29T13:23:35;2.25;;;1.92;;
9698;SDS011;10089;47.876;8.346;2023-07-29T13:26:01;2.33;;;2.13;;
9698;SDS011;10089;47.876;8.346;2023-07-29T13:28:26;2.78;;;2.20;;
9698;SDS011;10089;47.876;8.346;2023-07-29T13:30:52;2.67;;;2.47;;
9698;SDS011;10089;47.876;8.346;2023-07-29T13:33:18;2.50;;;1.98;;
9698;SDS011;10089;47.876;8.346;2023-07-29T13:35:45;2.05;;;1.77;;
9698;SDS011;10089;47.876;8.346;2023-07-29T13:38:11;2.63;;;2.33;;
9698;SDS011;10089;47.876;8.346;2023-07-29T13:40:36;3.60;;;1.90;;
9698;SDS011;10089;47.876;8.346;2023-07-29T13:43:02;2.33;;;2.00;;
9698;SDS011;10089;47.876;8.346;2023-07-29T13:45:28;2.40;;;2.15;;
9698;SDS011;10089;47.876;8.346;2023-07-29T13:47:53;2.28;;;1.92;;
9698;SDS011;10089;47.876;8.346;2023-07-29T13:50:19;2.63;;;2.33;;
9698;SDS011;10089;47.876;8.346;2023-07-29T13:52:45;2.08;;;1.88;;
9698;SDS011;10089;47.876;8.346;2023-07-29T13:55:10;1.92;;;1.73;;
9698;SDS011;10089;47.876;8.346;2023-07-29T13:57:36;2.00;;;1.60;;
9698;SDS011;10089;47.876;8.346;2023-07-29T14:00:04;2.10;;;1.70;;
9698;SDS011;10089;47.876;8.346;2023-07-29T14:02:30;2.25;;;1.88;;
9698;SDS011;10089;47.876;8.346;2023-07-29T14:04:56;2.78;;;1.90;;
9698;SDS011;10089;47.876;8.346;2023-07-29T14:07:22;2.28;;;1.95;;
9698;SDS011;10089;47.876;8.346;2023-07-29T14:09:49;2.13;;;1.92;;
9698;SDS011;10089;47.876;8.346;2023-07-29T14:12:15;2.10;;;1.90;;
9698;SDS011;10089;47.876;8.346;2023-07-29T14:14:41;2.53;;;1.98;;
9698;SDS011;10089;47.876;8.346;2023-07-29T14:17:07;2.65;;;2.08;;
9698;SDS011;10089;47.876;8.346;2023-07-29T14:19:33;2.83;;;1.95;;
9698;SDS011;10089;47.876;8.346;2023-07-29T14:21:59;2.67;;;2.00;;
9698;SDS011;10089;47.876;8.346;2023-07-29T14:24:25;3.60;;;2.10;;
9698;SDS011;10089;47.876;8.346;2023-07-29T14:26:51;2.33;;;1.98;;
9698;SDS011;10089;47.876;8.346;2023-07-29T14:29:16;2.53;;;2.10;;
9698;SDS011;10089;47.876;8.346;2023-07-29T14:31:42;4.35;;;1.88;;
9698;SDS011;10089;47.876;8.346;2023-07-29T14:34:08;2.95;;;1.95;;
9698;SDS011;10089;47.876;8.346;2023-07-29T14:36:34;2.50;;;1.92;;
9698;SDS011;10089;47.876;8.346;2023-07-29T14:38:59;2.35;;;2.00;;
9698;SDS011;10089;47.876;8.346;2023-07-29T14:41:25;2.67;;;1.95;;
9698;SDS011;10089;47.876;8.346;2023-07-29T14:43:50;2.50;;;2.20;;
9698;SDS011;10089;47.876;8.346;2023-07-29T14:46:16;3.08;;;2.05;;
9698;SDS011;10089;47.876;8.346;2023-07-29T14:48:41;2.70;;;2.20;;
9698;SDS011;10089;47.876;8.346;2023-07-29T14:51:07;2.65;;;2.05;;
9698;SDS011;10089;47.876;8.346;2023-07-29T14:53:33;2.63;;;2.00;;
9698;SDS011;10089;47.876;8.346;2023-07-29T14:55:58;2.53;;;2.10;;
9698;SDS011;10089;47.876;8.346;2023-07-29T14:58:24;2.70;;;2.05;;
9698;SDS011;10089;47.876;8.346;2023-07-29T15:00:50;3.45;;;2.13;;
9698;SDS011;10089;47.876;8.346;2023-07-29T15:03:16;2.58;;;2.33;;
9698;SDS011;10089;47.876;8.346;2023-07-29T15:05:42;2.53;;;2.20;;
9698;SDS011;10089;47.876;8.346;2023-07-29T15:08:08;2.53;;;1.88;;